Aeroporto :
LOGIN :

Iscrizione | Disclaimer

   EN    FR    IT 

 










Sommario :    VFR   VFR Marginale   IFR   IFR Intensivo   IFR Molto Intensivo
Visibilità : 
Base nubi : 
>= 8 km
>= 3000ft
5 / 8 km
1000 / 3000 ft
1500m / 5 km
500 / 1000 ft
800 / 1500m
200 / 500 ft
< 800m
< 200 ft
Simboli :   Temporali  Nebbia  Neve Forte  Precipitazioni Forti  Vento > 20 kt
SIGMETs :   Varie  Temporali  Ghiacco  Turbolenza  Onda orograficha  Ceneri Vulcaniche






- Altitudine del aeroporto : 327 ft
- Codice IATA : BHX


EGBB - Birmingham

ULTIMO METAR :
  • 291650Z 23009KT 200V260 9999 BKN042 09/03 Q1007

METARs OBSOLETI :
  • 291620Z 21008KT 170V230 9999 SCT044 09/03 Q1007
  • 291550Z 21007KT 170V240 9999 BKN046 09/03 Q1008
  • 291520Z 22008KT 180V260 9999 SCT046 09/03 Q1007
  • 291450Z 22010KT 190V280 9999 BKN048 09/03 Q1007
  • 291420Z 24009KT 210V270 9999 BKN029 09/03 Q1007

TAF TAF EGBB
Valido dal 29 a 12 ore il 30 a 12 ore UTC


291101Z 2912/3012 24010KT 9999 FEW035
PROB30
TEMPO 2915/2921 25015G25KT 8000 -RA
BECMG 3000/3003 18007KT
BECMG 3006/3009 6000 BKN010
TEMPO 3006/3012 2000 BR BKN006
PROB30
TEMPO 3008/3012 0300 DZ FG OVC000
ATIS : +44 121 780 0910



MetMap, La meteo Aeronautica in un colpo d'occhio ! - Copyright ORBIFLY Dicembre 2007 - Disclaimer

ORBIFLY MET'MAP TEAM :

Programmazione e sviluppo : Alexandra Zaïnal
Concezione : Baudouin d'Aumeries
Aiuto per la programmazione : Marc-Olivier Méhu
Supporto tecnico e logistico : Manuel Goepfert
Aiuto per la traduzione : Arnaldo La Scala

Contatto : metmap@orbifly.com




FONTI E CREDITI :

   NOAA